sensor_id;sensor_type;location;lat;lon;timestamp;P1;durP1;ratioP1;P2;durP2;ratioP2
71296;SDS011;59082;50.658;4.608;2024-01-10T00:01:03;6.53;;;4.35;;
71296;SDS011;59082;50.658;4.608;2024-01-10T00:03:28;4.50;;;4.07;;
71296;SDS011;59082;50.658;4.608;2024-01-10T00:05:53;5.93;;;3.75;;
71296;SDS011;59082;50.658;4.608;2024-01-10T00:08:20;4.57;;;3.40;;
71296;SDS011;59082;50.658;4.608;2024-01-10T00:10:45;4.50;;;4.05;;
71296;SDS011;59082;50.658;4.608;2024-01-10T00:13:10;6.23;;;4.20;;
71296;SDS011;59082;50.658;4.608;2024-01-10T00:15:36;4.80;;;3.67;;
71296;SDS011;59082;50.658;4.608;2024-01-10T00:18:01;8.53;;;5.03;;
71296;SDS011;59082;50.658;4.608;2024-01-10T00:20:27;3.90;;;3.25;;
71296;SDS011;59082;50.658;4.608;2024-01-10T00:22:52;3.23;;;2.93;;
71296;SDS011;59082;50.658;4.608;2024-01-10T00:25:18;6.47;;;4.43;;
71296;SDS011;59082;50.658;4.608;2024-01-10T00:27:43;2.17;;;1.87;;
71296;SDS011;59082;50.658;4.608;2024-01-10T00:30:09;5.25;;;3.88;;
71296;SDS011;59082;50.658;4.608;2024-01-10T00:32:34;8.75;;;4.05;;
71296;SDS011;59082;50.658;4.608;2024-01-10T00:34:59;8.53;;;4.97;;
71296;SDS011;59082;50.658;4.608;2024-01-10T00:37:26;7.20;;;4.30;;
71296;SDS011;59082;50.658;4.608;2024-01-10T00:39:51;6.80;;;4.15;;
71296;SDS011;59082;50.658;4.608;2024-01-10T00:42:17;7.50;;;2.93;;
71296;SDS011;59082;50.658;4.608;2024-01-10T00:44:43;14.93;;;3.58;;
71296;SDS011;59082;50.658;4.608;2024-01-10T00:47:09;5.60;;;3.57;;
71296;SDS011;59082;50.658;4.608;2024-01-10T00:49:35;4.85;;;4.45;;
71296;SDS011;59082;50.658;4.608;2024-01-10T00:52:01;4.70;;;4.10;;
71296;SDS011;59082;50.658;4.608;2024-01-10T00:54:26;6.25;;;5.10;;
71296;SDS011;59082;50.658;4.608;2024-01-10T00:56:51;4.47;;;3.95;;
71296;SDS011;59082;50.658;4.608;2024-01-10T00:59:17;6.13;;;4.20;;
71296;SDS011;59082;50.658;4.608;2024-01-10T01:01:42;4.50;;;3.43;;
71296;SDS011;59082;50.658;4.608;2024-01-10T01:04:07;6.50;;;4.00;;
71296;SDS011;59082;50.658;4.608;2024-01-10T01:06:33;4.33;;;2.73;;
71296;SDS011;59082;50.658;4.608;2024-01-10T01:08:58;9.67;;;4.20;;
71296;SDS011;59082;50.658;4.608;2024-01-10T01:11:23;6.13;;;3.73;;
71296;SDS011;59082;50.658;4.608;2024-01-10T01:13:49;7.80;;;3.93;;
71296;SDS011;59082;50.658;4.608;2024-01-10T01:16:14;5.13;;;3.10;;
71296;SDS011;59082;50.658;4.608;2024-01-10T01:18:39;4.82;;;3.58;;
71296;SDS011;59082;50.658;4.608;2024-01-10T01:21:05;3.47;;;2.77;;
71296;SDS011;59082;50.658;4.608;2024-01-10T01:23:30;11.50;;;3.20;;
71296;SDS011;59082;50.658;4.608;2024-01-10T01:25:55;3.07;;;2.77;;
71296;SDS011;59082;50.658;4.608;2024-01-10T01:28:21;3.87;;;3.33;;
71296;SDS011;59082;50.658;4.608;2024-01-10T01:30:46;3.87;;;3.57;;
71296;SDS011;59082;50.658;4.608;2024-01-10T01:33:12;6.40;;;4.90;;
71296;SDS011;59082;50.658;4.608;2024-01-10T01:35:37;5.93;;;3.97;;
71296;SDS011;59082;50.658;4.608;2024-01-10T01:38:02;8.23;;;5.15;;
71296;SDS011;59082;50.658;4.608;2024-01-10T01:40:28;6.80;;;4.37;;
71296;SDS011;59082;50.658;4.608;2024-01-10T01:42:53;2.37;;;1.87;;
71296;SDS011;59082;50.658;4.608;2024-01-10T01:45:18;4.53;;;4.10;;
71296;SDS011;59082;50.658;4.608;2024-01-10T01:47:44;3.17;;;2.83;;
71296;SDS011;59082;50.658;4.608;2024-01-10T01:50:09;5.32;;;4.07;;
71296;SDS011;59082;50.658;4.608;2024-01-10T01:52:35;8.13;;;4.50;;
71296;SDS011;59082;50.658;4.608;2024-01-10T01:55:01;4.40;;;3.63;;
71296;SDS011;59082;50.658;4.608;2024-01-10T01:57:26;4.57;;;3.22;;
71296;SDS011;59082;50.658;4.608;2024-01-10T01:59:52;3.40;;;3.03;;
71296;SDS011;59082;50.658;4.608;2024-01-10T02:02:17;5.03;;;4.60;;
71296;SDS011;59082;50.658;4.608;2024-01-10T02:04:43;10.40;;;6.47;;
71296;SDS011;59082;50.658;4.608;2024-01-10T02:07:09;3.90;;;3.42;;
71296;SDS011;59082;50.658;4.608;2024-01-10T02:09:34;5.77;;;3.63;;
71296;SDS011;59082;50.658;4.608;2024-01-10T02:11:59;6.28;;;4.63;;
71296;SDS011;59082;50.658;4.608;2024-01-10T02:14:25;5.87;;;4.73;;
71296;SDS011;59082;50.658;4.608;2024-01-10T02:16:50;5.73;;;4.50;;
71296;SDS011;59082;50.658;4.608;2024-01-10T02:19:22;5.93;;;4.67;;
71296;SDS011;59082;50.658;4.608;2024-01-10T02:21:47;5.60;;;3.97;;
71296;SDS011;59082;50.658;4.608;2024-01-10T02:24:13;4.97;;;4.07;;
71296;SDS011;59082;50.658;4.608;2024-01-10T02:26:39;6.18;;;3.97;;
71296;SDS011;59082;50.658;4.608;2024-01-10T02:29:04;7.13;;;3.58;;
71296;SDS011;59082;50.658;4.608;2024-01-10T02:31:30;5.07;;;4.57;;
71296;SDS011;59082;50.658;4.608;2024-01-10T02:33:55;13.97;;;5.90;;
71296;SDS011;59082;50.658;4.608;2024-01-10T02:36:20;7.05;;;4.22;;
71296;SDS011;59082;50.658;4.608;2024-01-10T02:38:46;7.35;;;5.13;;
71296;SDS011;59082;50.658;4.608;2024-01-10T02:41:12;7.30;;;3.73;;
71296;SDS011;59082;50.658;4.608;2024-01-10T02:43:38;4.93;;;3.88;;
71296;SDS011;59082;50.658;4.608;2024-01-10T02:46:03;6.83;;;4.40;;
71296;SDS011;59082;50.658;4.608;2024-01-10T02:48:28;6.10;;;3.73;;
71296;SDS011;59082;50.658;4.608;2024-01-10T02:50:54;6.17;;;3.67;;
71296;SDS011;59082;50.658;4.608;2024-01-10T02:53:20;6.15;;;4.00;;
71296;SDS011;59082;50.658;4.608;2024-01-10T02:55:46;5.00;;;4.60;;
71296;SDS011;59082;50.658;4.608;2024-01-10T02:58:11;7.63;;;4.40;;
71296;SDS011;59082;50.658;4.608;2024-01-10T03:00:37;4.77;;;4.33;;
71296;SDS011;59082;50.658;4.608;2024-01-10T03:03:02;5.15;;;3.85;;
71296;SDS011;59082;50.658;4.608;2024-01-10T03:05:28;7.73;;;5.40;;
71296;SDS011;59082;50.658;4.608;2024-01-10T03:07:53;5.77;;;3.07;;
71296;SDS011;59082;50.658;4.608;2024-01-10T03:10:19;5.25;;;4.40;;
71296;SDS011;59082;50.658;4.608;2024-01-10T03:12:44;7.90;;;4.82;;
71296;SDS011;59082;50.658;4.608;2024-01-10T03:15:09;7.80;;;4.47;;
71296;SDS011;59082;50.658;4.608;2024-01-10T03:17:35;6.63;;;4.33;;
71296;SDS011;59082;50.658;4.608;2024-01-10T03:20:01;5.68;;;5.18;;
71296;SDS011;59082;50.658;4.608;2024-01-10T03:22:26;10.63;;;5.17;;
71296;SDS011;59082;50.658;4.608;2024-01-10T03:24:52;7.20;;;4.40;;
71296;SDS011;59082;50.658;4.608;2024-01-10T03:27:17;7.13;;;4.80;;
71296;SDS011;59082;50.658;4.608;2024-01-10T03:29:42;7.50;;;4.78;;
71296;SDS011;59082;50.658;4.608;2024-01-10T03:32:08;7.20;;;4.00;;
71296;SDS011;59082;50.658;4.608;2024-01-10T03:34:33;7.50;;;5.00;;
71296;SDS011;59082;50.658;4.608;2024-01-10T03:36:58;6.77;;;4.63;;
71296;SDS011;59082;50.658;4.608;2024-01-10T03:39:24;5.73;;;3.43;;
71296;SDS011;59082;50.658;4.608;2024-01-10T03:41:49;4.83;;;4.23;;
71296;SDS011;59082;50.658;4.608;2024-01-10T03:44:14;8.87;;;4.93;;
71296;SDS011;59082;50.658;4.608;2024-01-10T03:46:39;3.83;;;2.93;;
71296;SDS011;59082;50.658;4.608;2024-01-10T03:49:05;6.80;;;4.70;;
71296;SDS011;59082;50.658;4.608;2024-01-10T03:51:30;11.73;;;4.50;;
71296;SDS011;59082;50.658;4.608;2024-01-10T03:53:55;7.93;;;5.30;;
71296;SDS011;59082;50.658;4.608;2024-01-10T03:56:21;8.20;;;4.85;;
71296;SDS011;59082;50.658;4.608;2024-01-10T03:58:46;6.97;;;4.77;;
71296;SDS011;59082;50.658;4.608;2024-01-10T04:01:13;3.00;;;2.78;;
71296;SDS011;59082;50.658;4.608;2024-01-10T04:03:39;7.57;;;4.37;;
71296;SDS011;59082;50.658;4.608;2024-01-10T04:06:07;6.55;;;4.35;;
71296;SDS011;59082;50.658;4.608;2024-01-10T04:08:32;6.87;;;4.33;;
71296;SDS011;59082;50.658;4.608;2024-01-10T04:10:57;5.73;;;3.90;;
71296;SDS011;59082;50.658;4.608;2024-01-10T04:13:23;6.90;;;4.67;;
71296;SDS011;59082;50.658;4.608;2024-01-10T04:15:48;7.17;;;4.67;;
71296;SDS011;59082;50.658;4.608;2024-01-10T04:18:14;6.03;;;5.03;;
71296;SDS011;59082;50.658;4.608;2024-01-10T04:20:39;7.40;;;5.10;;
71296;SDS011;59082;50.658;4.608;2024-01-10T04:23:05;5.73;;;4.80;;
71296;SDS011;59082;50.658;4.608;2024-01-10T04:25:30;5.97;;;5.17;;
71296;SDS011;59082;50.658;4.608;2024-01-10T04:27:55;7.87;;;4.93;;
71296;SDS011;59082;50.658;4.608;2024-01-10T04:30:22;5.85;;;3.83;;
71296;SDS011;59082;50.658;4.608;2024-01-10T04:32:47;4.90;;;4.23;;
71296;SDS011;59082;50.658;4.608;2024-01-10T04:35:13;6.10;;;4.30;;
71296;SDS011;59082;50.658;4.608;2024-01-10T04:37:38;6.07;;;4.67;;
71296;SDS011;59082;50.658;4.608;2024-01-10T04:40:04;4.72;;;3.75;;
71296;SDS011;59082;50.658;4.608;2024-01-10T04:42:30;6.43;;;4.47;;
71296;SDS011;59082;50.658;4.608;2024-01-10T04:44:55;7.78;;;4.82;;
71296;SDS011;59082;50.658;4.608;2024-01-10T04:47:20;5.67;;;4.27;;
71296;SDS011;59082;50.658;4.608;2024-01-10T04:49:46;7.17;;;5.27;;
71296;SDS011;59082;50.658;4.608;2024-01-10T04:52:12;10.65;;;5.20;;
71296;SDS011;59082;50.658;4.608;2024-01-10T04:54:37;4.03;;;3.57;;
71296;SDS011;59082;50.658;4.608;2024-01-10T04:57:03;6.03;;;4.30;;
71296;SDS011;59082;50.658;4.608;2024-01-10T04:59:28;5.00;;;4.50;;
71296;SDS011;59082;50.658;4.608;2024-01-10T05:01:53;5.40;;;4.85;;
71296;SDS011;59082;50.658;4.608;2024-01-10T05:04:19;9.07;;;4.90;;
71296;SDS011;59082;50.658;4.608;2024-01-10T05:06:44;8.43;;;5.40;;
71296;SDS011;59082;50.658;4.608;2024-01-10T05:09:10;8.07;;;4.30;;
71296;SDS011;59082;50.658;4.608;2024-01-10T05:11:35;9.97;;;5.10;;
71296;SDS011;59082;50.658;4.608;2024-01-10T05:14:01;8.90;;;4.95;;
71296;SDS011;59082;50.658;4.608;2024-01-10T05:16:26;8.77;;;4.80;;
71296;SDS011;59082;50.658;4.608;2024-01-10T05:18:52;6.40;;;5.00;;
71296;SDS011;59082;50.658;4.608;2024-01-10T05:21:17;5.67;;;3.90;;
71296;SDS011;59082;50.658;4.608;2024-01-10T05:23:42;6.43;;;5.17;;
71296;SDS011;59082;50.658;4.608;2024-01-10T05:26:08;9.55;;;5.43;;
71296;SDS011;59082;50.658;4.608;2024-01-10T05:28:33;5.10;;;3.57;;
71296;SDS011;59082;50.658;4.608;2024-01-10T05:30:58;6.47;;;3.43;;
71296;SDS011;59082;50.658;4.608;2024-01-10T05:33:24;5.43;;;4.93;;
71296;SDS011;59082;50.658;4.608;2024-01-10T05:35:49;9.70;;;5.57;;
71296;SDS011;59082;50.658;4.608;2024-01-10T05:38:14;6.37;;;4.33;;
71296;SDS011;59082;50.658;4.608;2024-01-10T05:40:40;6.03;;;4.53;;
71296;SDS011;59082;50.658;4.608;2024-01-10T05:43:05;6.60;;;5.03;;
71296;SDS011;59082;50.658;4.608;2024-01-10T05:45:32;4.88;;;4.40;;
71296;SDS011;59082;50.658;4.608;2024-01-10T05:47:57;5.53;;;4.13;;
71296;SDS011;59082;50.658;4.608;2024-01-10T05:50:23;5.63;;;4.13;;
71296;SDS011;59082;50.658;4.608;2024-01-10T05:52:48;9.07;;;4.73;;
71296;SDS011;59082;50.658;4.608;2024-01-10T05:55:14;5.07;;;3.70;;
71296;SDS011;59082;50.658;4.608;2024-01-10T05:57:39;8.40;;;5.70;;
71296;SDS011;59082;50.658;4.608;2024-01-10T06:00:05;7.10;;;4.13;;
71296;SDS011;59082;50.658;4.608;2024-01-10T06:02:35;4.80;;;4.22;;
71296;SDS011;59082;50.658;4.608;2024-01-10T06:05:04;7.93;;;5.60;;
71296;SDS011;59082;50.658;4.608;2024-01-10T06:07:31;10.73;;;4.78;;
71296;SDS011;59082;50.658;4.608;2024-01-10T06:09:56;5.60;;;5.07;;
71296;SDS011;59082;50.658;4.608;2024-01-10T06:12:22;10.95;;;5.88;;
71296;SDS011;59082;50.658;4.608;2024-01-10T06:14:47;6.67;;;3.87;;
71296;SDS011;59082;50.658;4.608;2024-01-10T06:17:13;8.37;;;5.70;;
71296;SDS011;59082;50.658;4.608;2024-01-10T06:19:39;7.75;;;4.72;;
71296;SDS011;59082;50.658;4.608;2024-01-10T06:22:04;5.53;;;4.50;;
71296;SDS011;59082;50.658;4.608;2024-01-10T06:24:30;5.47;;;4.23;;
71296;SDS011;59082;50.658;4.608;2024-01-10T06:26:55;4.70;;;3.63;;
71296;SDS011;59082;50.658;4.608;2024-01-10T06:29:21;8.43;;;4.67;;
71296;SDS011;59082;50.658;4.608;2024-01-10T06:31:46;4.20;;;3.80;;
71296;SDS011;59082;50.658;4.608;2024-01-10T06:34:12;6.37;;;3.73;;
71296;SDS011;59082;50.658;4.608;2024-01-10T06:36:38;7.80;;;4.97;;
71296;SDS011;59082;50.658;4.608;2024-01-10T06:39:03;6.00;;;5.43;;
71296;SDS011;59082;50.658;4.608;2024-01-10T06:41:29;3.40;;;3.20;;
71296;SDS011;59082;50.658;4.608;2024-01-10T06:43:54;11.10;;;4.70;;
71296;SDS011;59082;50.658;4.608;2024-01-10T06:46:20;7.38;;;4.68;;
71296;SDS011;59082;50.658;4.608;2024-01-10T06:48:45;7.40;;;4.93;;
71296;SDS011;59082;50.658;4.608;2024-01-10T06:51:14;12.00;;;5.50;;
71296;SDS011;59082;50.658;4.608;2024-01-10T06:53:40;5.47;;;3.85;;
71296;SDS011;59082;50.658;4.608;2024-01-10T06:56:06;4.15;;;3.60;;
71296;SDS011;59082;50.658;4.608;2024-01-10T06:58:32;5.93;;;4.28;;
71296;SDS011;59082;50.658;4.608;2024-01-10T07:00:58;7.20;;;3.93;;
71296;SDS011;59082;50.658;4.608;2024-01-10T07:03:25;9.50;;;6.78;;
71296;SDS011;59082;50.658;4.608;2024-01-10T07:05:50;7.03;;;4.80;;
71296;SDS011;59082;50.658;4.608;2024-01-10T07:08:16;9.27;;;6.07;;
71296;SDS011;59082;50.658;4.608;2024-01-10T07:10:41;7.57;;;4.75;;
71296;SDS011;59082;50.658;4.608;2024-01-10T07:13:07;5.30;;;4.43;;
71296;SDS011;59082;50.658;4.608;2024-01-10T07:15:32;4.97;;;3.50;;
71296;SDS011;59082;50.658;4.608;2024-01-10T07:17:59;11.73;;;6.03;;
71296;SDS011;59082;50.658;4.608;2024-01-10T07:20:24;6.10;;;4.22;;
71296;SDS011;59082;50.658;4.608;2024-01-10T07:22:50;10.40;;;6.10;;
71296;SDS011;59082;50.658;4.608;2024-01-10T07:25:16;10.32;;;4.95;;
71296;SDS011;59082;50.658;4.608;2024-01-10T07:27:42;7.45;;;5.28;;
71296;SDS011;59082;50.658;4.608;2024-01-10T07:30:08;8.10;;;6.20;;
71296;SDS011;59082;50.658;4.608;2024-01-10T07:35:06;8.25;;;4.70;;
71296;SDS011;59082;50.658;4.608;2024-01-10T07:37:37;8.70;;;4.63;;
71296;SDS011;59082;50.658;4.608;2024-01-10T07:40:04;6.45;;;4.85;;
71296;SDS011;59082;50.658;4.608;2024-01-10T07:42:31;3.28;;;2.95;;
71296;SDS011;59082;50.658;4.608;2024-01-10T07:44:57;9.85;;;5.38;;
71296;SDS011;59082;50.658;4.608;2024-01-10T07:47:22;6.03;;;3.97;;
71296;SDS011;59082;50.658;4.608;2024-01-10T07:49:48;3.80;;;3.33;;
71296;SDS011;59082;50.658;4.608;2024-01-10T07:52:13;7.63;;;4.33;;
71296;SDS011;59082;50.658;4.608;2024-01-10T07:54:41;6.50;;;5.50;;
71296;SDS011;59082;50.658;4.608;2024-01-10T07:57:06;10.23;;;4.33;;
71296;SDS011;59082;50.658;4.608;2024-01-10T07:59:32;4.45;;;3.45;;
71296;SDS011;59082;50.658;4.608;2024-01-10T08:01:59;10.05;;;4.95;;
71296;SDS011;59082;50.658;4.608;2024-01-10T08:04:25;5.27;;;4.23;;
71296;SDS011;59082;50.658;4.608;2024-01-10T08:06:51;8.80;;;6.32;;
71296;SDS011;59082;50.658;4.608;2024-01-10T08:09:16;6.30;;;5.05;;
71296;SDS011;59082;50.658;4.608;2024-01-10T08:11:44;6.87;;;5.10;;
71296;SDS011;59082;50.658;4.608;2024-01-10T08:14:10;5.50;;;3.72;;
71296;SDS011;59082;50.658;4.608;2024-01-10T08:16:35;9.17;;;6.07;;
71296;SDS011;59082;50.658;4.608;2024-01-10T08:19:00;5.13;;;4.47;;
71296;SDS011;59082;50.658;4.608;2024-01-10T08:21:26;8.50;;;4.47;;
71296;SDS011;59082;50.658;4.608;2024-01-10T08:23:51;5.33;;;4.40;;
71296;SDS011;59082;50.658;4.608;2024-01-10T08:26:16;9.80;;;5.43;;
71296;SDS011;59082;50.658;4.608;2024-01-10T08:28:42;5.80;;;5.27;;
71296;SDS011;59082;50.658;4.608;2024-01-10T08:31:07;11.30;;;6.67;;
71296;SDS011;59082;50.658;4.608;2024-01-10T08:33:33;6.63;;;5.88;;
71296;SDS011;59082;50.658;4.608;2024-01-10T08:35:58;6.30;;;4.03;;
71296;SDS011;59082;50.658;4.608;2024-01-10T08:38:24;5.13;;;4.17;;
71296;SDS011;59082;50.658;4.608;2024-01-10T08:40:49;5.15;;;3.85;;
71296;SDS011;59082;50.658;4.608;2024-01-10T08:43:15;14.77;;;9.97;;
71296;SDS011;59082;50.658;4.608;2024-01-10T08:45:40;9.83;;;8.17;;
71296;SDS011;59082;50.658;4.608;2024-01-10T08:48:06;12.73;;;8.17;;
71296;SDS011;59082;50.658;4.608;2024-01-10T08:50:35;13.23;;;9.27;;
71296;SDS011;59082;50.658;4.608;2024-01-10T08:53:01;6.70;;;4.77;;
71296;SDS011;59082;50.658;4.608;2024-01-10T08:55:30;6.25;;;3.20;;
71296;SDS011;59082;50.658;4.608;2024-01-10T08:57:55;14.23;;;10.87;;
71296;SDS011;59082;50.658;4.608;2024-01-10T09:00:21;9.30;;;6.00;;
71296;SDS011;59082;50.658;4.608;2024-01-10T09:02:46;14.82;;;5.57;;
71296;SDS011;59082;50.658;4.608;2024-01-10T09:05:11;13.80;;;6.37;;
71296;SDS011;59082;50.658;4.608;2024-01-10T09:07:37;8.83;;;6.50;;
71296;SDS011;59082;50.658;4.608;2024-01-10T09:10:03;16.10;;;10.32;;
71296;SDS011;59082;50.658;4.608;2024-01-10T09:12:30;57.80;;;25.35;;
71296;SDS011;59082;50.658;4.608;2024-01-10T09:14:55;18.70;;;9.60;;
71296;SDS011;59082;50.658;4.608;2024-01-10T09:17:21;22.47;;;13.77;;
71296;SDS011;59082;50.658;4.608;2024-01-10T09:19:46;12.27;;;7.93;;
71296;SDS011;59082;50.658;4.608;2024-01-10T09:22:12;26.53;;;11.60;;
71296;SDS011;59082;50.658;4.608;2024-01-10T09:24:38;13.23;;;8.90;;
71296;SDS011;59082;50.658;4.608;2024-01-10T09:27:04;15.00;;;8.20;;
71296;SDS011;59082;50.658;4.608;2024-01-10T09:29:29;9.15;;;8.13;;
71296;SDS011;59082;50.658;4.608;2024-01-10T09:31:56;9.57;;;6.87;;
71296;SDS011;59082;50.658;4.608;2024-01-10T09:34:21;12.40;;;8.02;;
71296;SDS011;59082;50.658;4.608;2024-01-10T09:36:47;7.77;;;6.73;;
71296;SDS011;59082;50.658;4.608;2024-01-10T09:39:13;14.97;;;11.60;;
71296;SDS011;59082;50.658;4.608;2024-01-10T09:41:46;8.50;;;6.38;;
71296;SDS011;59082;50.658;4.608;2024-01-10T09:44:12;8.45;;;5.57;;
71296;SDS011;59082;50.658;4.608;2024-01-10T09:46:37;11.43;;;5.93;;
71296;SDS011;59082;50.658;4.608;2024-01-10T09:49:04;18.23;;;9.47;;
71296;SDS011;59082;50.658;4.608;2024-01-10T09:51:30;11.38;;;6.80;;
71296;SDS011;59082;50.658;4.608;2024-01-10T09:53:58;18.55;;;8.75;;
71296;SDS011;59082;50.658;4.608;2024-01-10T09:56:25;8.00;;;5.82;;
71296;SDS011;59082;50.658;4.608;2024-01-10T09:58:52;8.68;;;7.88;;
71296;SDS011;59082;50.658;4.608;2024-01-10T10:01:18;10.97;;;8.03;;
71296;SDS011;59082;50.658;4.608;2024-01-10T10:03:45;9.73;;;8.27;;
71296;SDS011;59082;50.658;4.608;2024-01-10T10:06:11;17.08;;;10.68;;
71296;SDS011;59082;50.658;4.608;2024-01-10T10:08:36;24.10;;;13.27;;
71296;SDS011;59082;50.658;4.608;2024-01-10T10:11:03;18.23;;;11.57;;
71296;SDS011;59082;50.658;4.608;2024-01-10T10:13:29;17.50;;;9.13;;
71296;SDS011;59082;50.658;4.608;2024-01-10T10:16:00;26.55;;;14.60;;
71296;SDS011;59082;50.658;4.608;2024-01-10T10:18:26;24.58;;;14.93;;
71296;SDS011;59082;50.658;4.608;2024-01-10T10:21:11;24.00;;;12.87;;
71296;SDS011;59082;50.658;4.608;2024-01-10T10:23:37;20.55;;;10.55;;
71296;SDS011;59082;50.658;4.608;2024-01-10T10:26:13;19.27;;;11.10;;
71296;SDS011;59082;50.658;4.608;2024-01-10T10:28:44;14.88;;;8.98;;
71296;SDS011;59082;50.658;4.608;2024-01-10T10:31:09;14.70;;;7.53;;
71296;SDS011;59082;50.658;4.608;2024-01-10T10:33:35;21.30;;;10.23;;
71296;SDS011;59082;50.658;4.608;2024-01-10T10:36:01;13.43;;;7.32;;
71296;SDS011;59082;50.658;4.608;2024-01-10T10:38:26;13.53;;;6.73;;
71296;SDS011;59082;50.658;4.608;2024-01-10T10:40:52;10.93;;;6.95;;
71296;SDS011;59082;50.658;4.608;2024-01-10T10:43:18;13.45;;;7.35;;
71296;SDS011;59082;50.658;4.608;2024-01-10T10:45:47;33.63;;;19.15;;
71296;SDS011;59082;50.658;4.608;2024-01-10T10:48:12;15.00;;;7.90;;
71296;SDS011;59082;50.658;4.608;2024-01-10T10:50:39;13.52;;;6.97;;
71296;SDS011;59082;50.658;4.608;2024-01-10T10:53:05;9.02;;;5.95;;
71296;SDS011;59082;50.658;4.608;2024-01-10T10:55:31;9.35;;;4.55;;
71296;SDS011;59082;50.658;4.608;2024-01-10T10:57:59;9.73;;;6.30;;
71296;SDS011;59082;50.658;4.608;2024-01-10T11:00:26;13.30;;;6.70;;
71296;SDS011;59082;50.658;4.608;2024-01-10T11:02:56;11.82;;;6.78;;
71296;SDS011;59082;50.658;4.608;2024-01-10T11:05:22;10.60;;;6.22;;
71296;SDS011;59082;50.658;4.608;2024-01-10T11:07:48;10.03;;;6.30;;
71296;SDS011;59082;50.658;4.608;2024-01-10T11:10:18;11.60;;;7.28;;
71296;SDS011;59082;50.658;4.608;2024-01-10T11:15:59;14.40;;;7.10;;
71296;SDS011;59082;50.658;4.608;2024-01-10T11:21:46;11.80;;;6.88;;
71296;SDS011;59082;50.658;4.608;2024-01-10T11:23:54;8.50;;;5.00;;
71296;SDS011;59082;50.658;4.608;2024-01-10T11:26:20;9.98;;;6.03;;
71296;SDS011;59082;50.658;4.608;2024-01-10T11:28:45;12.67;;;6.57;;
71296;SDS011;59082;50.658;4.608;2024-01-10T11:31:12;14.35;;;8.50;;
71296;SDS011;59082;50.658;4.608;2024-01-10T11:33:41;8.80;;;6.00;;
71296;SDS011;59082;50.658;4.608;2024-01-10T11:36:20;9.38;;;6.57;;
71296;SDS011;59082;50.658;4.608;2024-01-10T11:47:08;16.25;;;8.77;;
71296;SDS011;59082;50.658;4.608;2024-01-10T11:49:27;9.30;;;6.30;;
71296;SDS011;59082;50.658;4.608;2024-01-10T11:51:53;12.47;;;7.87;;
71296;SDS011;59082;50.658;4.608;2024-01-10T11:57:07;8.30;;;6.22;;
71296;SDS011;59082;50.658;4.608;2024-01-10T11:59:32;10.45;;;7.35;;
71296;SDS011;59082;50.658;4.608;2024-01-10T12:01:58;13.13;;;8.30;;
71296;SDS011;59082;50.658;4.608;2024-01-10T12:04:24;9.90;;;6.75;;
71296;SDS011;59082;50.658;4.608;2024-01-10T12:06:51;12.50;;;7.83;;
71296;SDS011;59082;50.658;4.608;2024-01-10T12:09:17;14.32;;;8.27;;
71296;SDS011;59082;50.658;4.608;2024-01-10T12:11:43;12.97;;;8.83;;
71296;SDS011;59082;50.658;4.608;2024-01-10T12:14:08;14.52;;;9.18;;
71296;SDS011;59082;50.658;4.608;2024-01-10T12:16:33;10.38;;;6.93;;
71296;SDS011;59082;50.658;4.608;2024-01-10T12:18:59;10.63;;;6.60;;
71296;SDS011;59082;50.658;4.608;2024-01-10T12:21:24;11.13;;;8.80;;
71296;SDS011;59082;50.658;4.608;2024-01-10T12:23:50;13.00;;;8.17;;
71296;SDS011;59082;50.658;4.608;2024-01-10T12:26:16;22.02;;;10.48;;
71296;SDS011;59082;50.658;4.608;2024-01-10T12:28:41;11.70;;;7.27;;
71296;SDS011;59082;50.658;4.608;2024-01-10T12:31:18;13.05;;;7.88;;
71296;SDS011;59082;50.658;4.608;2024-01-10T12:33:43;12.37;;;8.53;;
71296;SDS011;59082;50.658;4.608;2024-01-10T12:36:09;27.07;;;12.20;;
71296;SDS011;59082;50.658;4.608;2024-01-10T12:38:35;15.98;;;10.43;;
71296;SDS011;59082;50.658;4.608;2024-01-10T12:41:01;15.38;;;8.32;;
71296;SDS011;59082;50.658;4.608;2024-01-10T12:43:26;12.13;;;7.68;;
71296;SDS011;59082;50.658;4.608;2024-01-10T12:46:10;15.38;;;8.57;;
71296;SDS011;59082;50.658;4.608;2024-01-10T12:48:37;15.45;;;8.52;;
71296;SDS011;59082;50.658;4.608;2024-01-10T12:51:07;14.82;;;8.77;;
71296;SDS011;59082;50.658;4.608;2024-01-10T12:53:36;19.02;;;13.30;;
71296;SDS011;59082;50.658;4.608;2024-01-10T12:56:02;27.15;;;16.45;;
71296;SDS011;59082;50.658;4.608;2024-01-10T12:58:28;12.40;;;7.80;;
71296;SDS011;59082;50.658;4.608;2024-01-10T13:00:54;15.10;;;9.43;;
71296;SDS011;59082;50.658;4.608;2024-01-10T13:03:20;13.63;;;8.27;;
71296;SDS011;59082;50.658;4.608;2024-01-10T13:05:45;18.37;;;11.00;;
71296;SDS011;59082;50.658;4.608;2024-01-10T13:08:10;20.57;;;13.77;;
71296;SDS011;59082;50.658;4.608;2024-01-10T13:10:37;9.50;;;7.10;;
71296;SDS011;59082;50.658;4.608;2024-01-10T13:13:03;24.88;;;14.23;;
71296;SDS011;59082;50.658;4.608;2024-01-10T13:15:28;15.52;;;9.60;;
71296;SDS011;59082;50.658;4.608;2024-01-10T13:17:55;20.07;;;12.80;;
71296;SDS011;59082;50.658;4.608;2024-01-10T13:20:21;17.90;;;10.65;;
71296;SDS011;59082;50.658;4.608;2024-01-10T13:22:46;24.47;;;13.70;;
71296;SDS011;59082;50.658;4.608;2024-01-10T13:25:11;15.83;;;9.23;;
71296;SDS011;59082;50.658;4.608;2024-01-10T13:27:37;16.00;;;8.45;;
71296;SDS011;59082;50.658;4.608;2024-01-10T13:30:03;20.60;;;11.97;;
71296;SDS011;59082;50.658;4.608;2024-01-10T13:32:30;15.40;;;9.70;;
71296;SDS011;59082;50.658;4.608;2024-01-10T13:34:56;13.67;;;7.23;;
71296;SDS011;59082;50.658;4.608;2024-01-10T13:37:22;17.00;;;9.95;;
71296;SDS011;59082;50.658;4.608;2024-01-10T13:39:47;17.43;;;9.73;;
71296;SDS011;59082;50.658;4.608;2024-01-10T13:42:13;14.63;;;7.90;;
71296;SDS011;59082;50.658;4.608;2024-01-10T13:44:39;15.05;;;9.48;;
71296;SDS011;59082;50.658;4.608;2024-01-10T13:47:04;30.13;;;16.40;;
71296;SDS011;59082;50.658;4.608;2024-01-10T13:49:29;19.03;;;11.60;;
71296;SDS011;59082;50.658;4.608;2024-01-10T13:51:55;23.17;;;13.75;;
71296;SDS011;59082;50.658;4.608;2024-01-10T13:54:20;21.30;;;11.80;;
71296;SDS011;59082;50.658;4.608;2024-01-10T13:56:47;30.95;;;17.58;;
71296;SDS011;59082;50.658;4.608;2024-01-10T13:59:12;18.50;;;9.83;;
71296;SDS011;59082;50.658;4.608;2024-01-10T14:01:38;13.30;;;10.27;;
71296;SDS011;59082;50.658;4.608;2024-01-10T14:04:03;22.92;;;12.20;;
71296;SDS011;59082;50.658;4.608;2024-01-10T14:06:28;29.92;;;15.73;;
71296;SDS011;59082;50.658;4.608;2024-01-10T14:08:55;13.87;;;8.97;;
71296;SDS011;59082;50.658;4.608;2024-01-10T14:11:20;19.88;;;12.35;;
71296;SDS011;59082;50.658;4.608;2024-01-10T14:13:45;13.53;;;10.20;;
71296;SDS011;59082;50.658;4.608;2024-01-10T14:16:11;13.27;;;8.20;;
71296;SDS011;59082;50.658;4.608;2024-01-10T14:18:36;12.73;;;8.30;;
71296;SDS011;59082;50.658;4.608;2024-01-10T14:21:02;15.17;;;7.13;;
71296;SDS011;59082;50.658;4.608;2024-01-10T14:23:27;11.25;;;7.10;;
71296;SDS011;59082;50.658;4.608;2024-01-10T14:25:53;12.20;;;7.15;;
71296;SDS011;59082;50.658;4.608;2024-01-10T14:28:18;14.13;;;8.00;;
71296;SDS011;59082;50.658;4.608;2024-01-10T14:30:46;19.38;;;10.70;;
71296;SDS011;59082;50.658;4.608;2024-01-10T14:33:11;18.58;;;9.82;;
71296;SDS011;59082;50.658;4.608;2024-01-10T14:35:39;25.17;;;14.40;;
71296;SDS011;59082;50.658;4.608;2024-01-10T14:38:05;54.70;;;25.55;;
71296;SDS011;59082;50.658;4.608;2024-01-10T14:40:30;21.65;;;13.93;;
71296;SDS011;59082;50.658;4.608;2024-01-10T14:42:56;13.52;;;7.88;;
71296;SDS011;59082;50.658;4.608;2024-01-10T14:45:21;14.33;;;8.40;;
71296;SDS011;59082;50.658;4.608;2024-01-10T14:47:51;12.07;;;7.85;;
71296;SDS011;59082;50.658;4.608;2024-01-10T14:50:18;12.77;;;8.40;;
71296;SDS011;59082;50.658;4.608;2024-01-10T14:52:44;12.85;;;7.82;;